sensor_id;sensor_type;location;lat;lon;timestamp;P1;durP1;ratioP1;P2;durP2;ratioP2
16957;SDS011;8595;52.542;11.974;2022-07-05T00:02:15;3.25;;;2.40;;
16957;SDS011;8595;52.542;11.974;2022-07-05T00:04:42;7.35;;;2.80;;
16957;SDS011;8595;52.542;11.974;2022-07-05T00:07:09;6.00;;;2.70;;
16957;SDS011;8595;52.542;11.974;2022-07-05T00:09:45;4.28;;;2.30;;
16957;SDS011;8595;52.542;11.974;2022-07-05T00:12:12;5.47;;;2.85;;
16957;SDS011;8595;52.542;11.974;2022-07-05T00:14:39;2.92;;;2.17;;
16957;SDS011;8595;52.542;11.974;2022-07-05T00:17:09;3.03;;;2.50;;
16957;SDS011;8595;52.542;11.974;2022-07-05T00:19:36;4.55;;;2.38;;
16957;SDS011;8595;52.542;11.974;2022-07-05T00:22:04;5.88;;;2.55;;
16957;SDS011;8595;52.542;11.974;2022-07-05T00:24:30;6.15;;;2.78;;
16957;SDS011;8595;52.542;11.974;2022-07-05T00:26:57;4.07;;;2.25;;
16957;SDS011;8595;52.542;11.974;2022-07-05T00:29:23;4.25;;;2.60;;
16957;SDS011;8595;52.542;11.974;2022-07-05T00:31:50;5.95;;;2.70;;
16957;SDS011;8595;52.542;11.974;2022-07-05T00:34:18;6.55;;;3.30;;
16957;SDS011;8595;52.542;11.974;2022-07-05T00:36:45;4.75;;;2.63;;
16957;SDS011;8595;52.542;11.974;2022-07-05T00:39:12;3.13;;;2.40;;
16957;SDS011;8595;52.542;11.974;2022-07-05T00:41:38;5.28;;;2.70;;
16957;SDS011;8595;52.542;11.974;2022-07-05T00:44:06;4.60;;;2.40;;
16957;SDS011;8595;52.542;11.974;2022-07-05T00:46:36;4.53;;;2.40;;
16957;SDS011;8595;52.542;11.974;2022-07-05T00:49:04;3.42;;;2.70;;
16957;SDS011;8595;52.542;11.974;2022-07-05T00:51:33;5.22;;;2.75;;
16957;SDS011;8595;52.542;11.974;2022-07-05T00:54:02;5.68;;;2.70;;
16957;SDS011;8595;52.542;11.974;2022-07-05T00:56:32;5.63;;;3.38;;
16957;SDS011;8595;52.542;11.974;2022-07-05T00:58:59;3.20;;;2.90;;
16957;SDS011;8595;52.542;11.974;2022-07-05T01:01:26;3.10;;;2.70;;
16957;SDS011;8595;52.542;11.974;2022-07-05T01:03:53;7.20;;;3.22;;
16957;SDS011;8595;52.542;11.974;2022-07-05T01:06:20;4.88;;;3.30;;
16957;SDS011;8595;52.542;11.974;2022-07-05T01:08:48;3.42;;;2.88;;
16957;SDS011;8595;52.542;11.974;2022-07-05T01:11:16;4.93;;;3.17;;
16957;SDS011;8595;52.542;11.974;2022-07-05T01:13:42;5.45;;;3.30;;
16957;SDS011;8595;52.542;11.974;2022-07-05T01:16:09;3.25;;;2.85;;
16957;SDS011;8595;52.542;11.974;2022-07-05T01:18:36;4.82;;;2.85;;
16957;SDS011;8595;52.542;11.974;2022-07-05T01:21:03;3.97;;;3.00;;
16957;SDS011;8595;52.542;11.974;2022-07-05T01:23:31;3.88;;;2.88;;
16957;SDS011;8595;52.542;11.974;2022-07-05T01:25:59;4.88;;;3.17;;
16957;SDS011;8595;52.542;11.974;2022-07-05T01:28:27;5.93;;;3.55;;
16957;SDS011;8595;52.542;11.974;2022-07-05T01:30:54;4.40;;;3.35;;
16957;SDS011;8595;52.542;11.974;2022-07-05T01:33:26;6.30;;;3.03;;
16957;SDS011;8595;52.542;11.974;2022-07-05T01:35:54;5.30;;;3.17;;
16957;SDS011;8595;52.542;11.974;2022-07-05T01:38:22;4.22;;;2.58;;
16957;SDS011;8595;52.542;11.974;2022-07-05T01:40:50;4.75;;;3.60;;
16957;SDS011;8595;52.542;11.974;2022-07-05T01:43:17;3.75;;;3.10;;
16957;SDS011;8595;52.542;11.974;2022-07-05T01:45:44;6.00;;;3.40;;
16957;SDS011;8595;52.542;11.974;2022-07-05T01:48:12;5.68;;;3.78;;
16957;SDS011;8595;52.542;11.974;2022-07-05T01:50:41;5.22;;;3.20;;
16957;SDS011;8595;52.542;11.974;2022-07-05T01:53:11;5.47;;;3.45;;
16957;SDS011;8595;52.542;11.974;2022-07-05T01:55:43;4.00;;;3.22;;
16957;SDS011;8595;52.542;11.974;2022-07-05T01:58:11;3.85;;;2.92;;
16957;SDS011;8595;52.542;11.974;2022-07-05T02:00:42;3.28;;;2.90;;
16957;SDS011;8595;52.542;11.974;2022-07-05T02:03:10;3.30;;;3.00;;
16957;SDS011;8595;52.542;11.974;2022-07-05T02:05:37;3.15;;;2.80;;
16957;SDS011;8595;52.542;11.974;2022-07-05T02:08:04;5.05;;;3.28;;
16957;SDS011;8595;52.542;11.974;2022-07-05T02:10:31;4.07;;;3.13;;
16957;SDS011;8595;52.542;11.974;2022-07-05T02:12:57;3.75;;;3.05;;
16957;SDS011;8595;52.542;11.974;2022-07-05T02:15:25;3.75;;;3.33;;
16957;SDS011;8595;52.542;11.974;2022-07-05T02:17:52;5.13;;;3.30;;
16957;SDS011;8595;52.542;11.974;2022-07-05T02:20:18;5.63;;;3.30;;
16957;SDS011;8595;52.542;11.974;2022-07-05T02:22:45;5.97;;;3.28;;
16957;SDS011;8595;52.542;11.974;2022-07-05T02:25:12;6.35;;;3.33;;
16957;SDS011;8595;52.542;11.974;2022-07-05T02:27:38;4.75;;;3.50;;
16957;SDS011;8595;52.542;11.974;2022-07-05T02:30:05;6.70;;;3.60;;
16957;SDS011;8595;52.542;11.974;2022-07-05T02:32:34;5.18;;;3.85;;
16957;SDS011;8595;52.542;11.974;2022-07-05T02:35:01;5.20;;;3.55;;
16957;SDS011;8595;52.542;11.974;2022-07-05T02:37:28;5.30;;;3.63;;
16957;SDS011;8595;52.542;11.974;2022-07-05T02:39:55;5.22;;;3.65;;
16957;SDS011;8595;52.542;11.974;2022-07-05T02:42:21;4.25;;;3.50;;
16957;SDS011;8595;52.542;11.974;2022-07-05T02:44:48;6.32;;;3.88;;
16957;SDS011;8595;52.542;11.974;2022-07-05T02:47:15;4.75;;;3.72;;
16957;SDS011;8595;52.542;11.974;2022-07-05T02:49:43;5.10;;;3.92;;
16957;SDS011;8595;52.542;11.974;2022-07-05T02:52:09;5.30;;;3.90;;
16957;SDS011;8595;52.542;11.974;2022-07-05T02:54:36;4.38;;;3.97;;
16957;SDS011;8595;52.542;11.974;2022-07-05T02:57:04;7.10;;;3.53;;
16957;SDS011;8595;52.542;11.974;2022-07-05T02:59:31;6.55;;;3.70;;
16957;SDS011;8595;52.542;11.974;2022-07-05T03:01:58;7.15;;;3.50;;
16957;SDS011;8595;52.542;11.974;2022-07-05T03:04:24;5.35;;;3.35;;
16957;SDS011;8595;52.542;11.974;2022-07-05T03:06:52;7.60;;;3.20;;
16957;SDS011;8595;52.542;11.974;2022-07-05T03:09:19;3.72;;;2.90;;
16957;SDS011;8595;52.542;11.974;2022-07-05T03:11:45;4.38;;;2.85;;
16957;SDS011;8595;52.542;11.974;2022-07-05T03:14:12;4.82;;;3.40;;
16957;SDS011;8595;52.542;11.974;2022-07-05T03:16:39;4.80;;;3.13;;
16957;SDS011;8595;52.542;11.974;2022-07-05T03:19:05;10.30;;;3.10;;
16957;SDS011;8595;52.542;11.974;2022-07-05T03:21:32;4.47;;;2.90;;
16957;SDS011;8595;52.542;11.974;2022-07-05T03:24:00;3.38;;;3.00;;
16957;SDS011;8595;52.542;11.974;2022-07-05T03:26:26;3.65;;;3.00;;
16957;SDS011;8595;52.542;11.974;2022-07-05T03:28:53;8.32;;;3.72;;
16957;SDS011;8595;52.542;11.974;2022-07-05T03:31:20;4.22;;;3.42;;
16957;SDS011;8595;52.542;11.974;2022-07-05T03:33:46;5.80;;;3.25;;
16957;SDS011;8595;52.542;11.974;2022-07-05T03:36:13;5.20;;;3.03;;
16957;SDS011;8595;52.542;11.974;2022-07-05T03:38:39;6.13;;;3.78;;
16957;SDS011;8595;52.542;11.974;2022-07-05T03:41:07;5.53;;;3.17;;
16957;SDS011;8595;52.542;11.974;2022-07-05T03:43:34;3.92;;;3.00;;
16957;SDS011;8595;52.542;11.974;2022-07-05T03:46:01;5.57;;;2.85;;
16957;SDS011;8595;52.542;11.974;2022-07-05T03:48:27;7.70;;;3.28;;
16957;SDS011;8595;52.542;11.974;2022-07-05T03:50:54;4.22;;;3.20;;
16957;SDS011;8595;52.542;11.974;2022-07-05T03:53:20;8.20;;;3.72;;
16957;SDS011;8595;52.542;11.974;2022-07-05T03:55:47;4.05;;;3.30;;
16957;SDS011;8595;52.542;11.974;2022-07-05T03:58:15;6.07;;;3.15;;
16957;SDS011;8595;52.542;11.974;2022-07-05T04:00:42;4.85;;;3.13;;
16957;SDS011;8595;52.542;11.974;2022-07-05T04:03:08;3.75;;;3.35;;
16957;SDS011;8595;52.542;11.974;2022-07-05T04:05:35;8.57;;;3.70;;
16957;SDS011;8595;52.542;11.974;2022-07-05T04:08:01;5.25;;;3.40;;
16957;SDS011;8595;52.542;11.974;2022-07-05T04:10:28;6.18;;;4.00;;
16957;SDS011;8595;52.542;11.974;2022-07-05T04:12:55;7.32;;;3.30;;
16957;SDS011;8595;52.542;11.974;2022-07-05T04:15:23;4.13;;;3.35;;
16957;SDS011;8595;52.542;11.974;2022-07-05T04:17:51;7.22;;;3.80;;
16957;SDS011;8595;52.542;11.974;2022-07-05T04:20:18;7.28;;;3.33;;
16957;SDS011;8595;52.542;11.974;2022-07-05T04:22:47;5.68;;;3.35;;
16957;SDS011;8595;52.542;11.974;2022-07-05T04:25:14;6.15;;;3.42;;
16957;SDS011;8595;52.542;11.974;2022-07-05T04:27:43;3.97;;;3.25;;
16957;SDS011;8595;52.542;11.974;2022-07-05T04:30:11;7.18;;;3.50;;
16957;SDS011;8595;52.542;11.974;2022-07-05T04:32:40;4.90;;;3.05;;
16957;SDS011;8595;52.542;11.974;2022-07-05T04:35:07;4.15;;;3.35;;
16957;SDS011;8595;52.542;11.974;2022-07-05T04:37:34;5.03;;;3.22;;
16957;SDS011;8595;52.542;11.974;2022-07-05T04:40:01;6.57;;;3.30;;
16957;SDS011;8595;52.542;11.974;2022-07-05T04:42:28;5.90;;;3.60;;
16957;SDS011;8595;52.542;11.974;2022-07-05T04:44:55;5.70;;;3.03;;
16957;SDS011;8595;52.542;11.974;2022-07-05T04:47:22;5.78;;;3.40;;
16957;SDS011;8595;52.542;11.974;2022-07-05T04:49:51;5.60;;;3.33;;
16957;SDS011;8595;52.542;11.974;2022-07-05T04:52:18;3.75;;;3.35;;
16957;SDS011;8595;52.542;11.974;2022-07-05T04:54:45;7.20;;;3.83;;
16957;SDS011;8595;52.542;11.974;2022-07-05T04:57:12;5.28;;;3.13;;
16957;SDS011;8595;52.542;11.974;2022-07-05T04:59:38;9.10;;;3.58;;
16957;SDS011;8595;52.542;11.974;2022-07-05T05:02:05;4.47;;;3.13;;
16957;SDS011;8595;52.542;11.974;2022-07-05T05:04:32;8.43;;;3.22;;
16957;SDS011;8595;52.542;11.974;2022-07-05T05:06:59;6.07;;;3.17;;
16957;SDS011;8595;52.542;11.974;2022-07-05T05:09:26;4.35;;;2.55;;
16957;SDS011;8595;52.542;11.974;2022-07-05T05:11:53;7.97;;;3.67;;
16957;SDS011;8595;52.542;11.974;2022-07-05T05:14:19;6.45;;;3.10;;
16957;SDS011;8595;52.542;11.974;2022-07-05T05:16:46;4.97;;;2.90;;
16957;SDS011;8595;52.542;11.974;2022-07-05T05:19:12;6.20;;;2.78;;
16957;SDS011;8595;52.542;11.974;2022-07-05T05:21:39;5.88;;;3.10;;
16957;SDS011;8595;52.542;11.974;2022-07-05T05:24:07;7.50;;;3.05;;
16957;SDS011;8595;52.542;11.974;2022-07-05T05:26:34;6.25;;;2.90;;
16957;SDS011;8595;52.542;11.974;2022-07-05T05:29:00;5.65;;;3.13;;
16957;SDS011;8595;52.542;11.974;2022-07-05T05:31:27;7.82;;;2.97;;
16957;SDS011;8595;52.542;11.974;2022-07-05T05:33:53;5.43;;;2.95;;
16957;SDS011;8595;52.542;11.974;2022-07-05T05:36:20;7.20;;;2.97;;
16957;SDS011;8595;52.542;11.974;2022-07-05T05:38:46;4.97;;;3.13;;
16957;SDS011;8595;52.542;11.974;2022-07-05T05:41:14;4.43;;;2.72;;
16957;SDS011;8595;52.542;11.974;2022-07-05T05:43:41;4.60;;;3.10;;
16957;SDS011;8595;52.542;11.974;2022-07-05T05:46:08;4.80;;;2.85;;
16957;SDS011;8595;52.542;11.974;2022-07-05T05:48:34;5.00;;;2.90;;
16957;SDS011;8595;52.542;11.974;2022-07-05T05:51:01;5.00;;;2.35;;
16957;SDS011;8595;52.542;11.974;2022-07-05T05:53:27;5.70;;;2.50;;
16957;SDS011;8595;52.542;11.974;2022-07-05T05:55:54;3.17;;;2.42;;
16957;SDS011;8595;52.542;11.974;2022-07-05T05:58:22;5.90;;;2.20;;
16957;SDS011;8595;52.542;11.974;2022-07-05T06:00:49;3.45;;;2.22;;
16957;SDS011;8595;52.542;11.974;2022-07-05T06:03:17;6.40;;;2.05;;
16957;SDS011;8595;52.542;11.974;2022-07-05T06:05:44;4.20;;;2.53;;
16957;SDS011;8595;52.542;11.974;2022-07-05T06:08:11;4.80;;;2.20;;
16957;SDS011;8595;52.542;11.974;2022-07-05T06:10:38;5.03;;;1.73;;
16957;SDS011;8595;52.542;11.974;2022-07-05T06:13:06;3.55;;;2.00;;
16957;SDS011;8595;52.542;11.974;2022-07-05T06:15:34;4.43;;;1.83;;
16957;SDS011;8595;52.542;11.974;2022-07-05T06:18:02;3.75;;;1.80;;
16957;SDS011;8595;52.542;11.974;2022-07-05T06:20:30;2.25;;;1.80;;
16957;SDS011;8595;52.542;11.974;2022-07-05T06:22:58;3.58;;;2.30;;
16957;SDS011;8595;52.542;11.974;2022-07-05T06:25:25;3.15;;;1.90;;
16957;SDS011;8595;52.542;11.974;2022-07-05T06:27:52;2.85;;;1.75;;
16957;SDS011;8595;52.542;11.974;2022-07-05T06:30:20;4.95;;;2.20;;
16957;SDS011;8595;52.542;11.974;2022-07-05T06:32:49;5.07;;;1.83;;
16957;SDS011;8595;52.542;11.974;2022-07-05T06:35:17;3.67;;;1.60;;
16957;SDS011;8595;52.542;11.974;2022-07-05T06:37:44;2.92;;;1.75;;
16957;SDS011;8595;52.542;11.974;2022-07-05T06:40:13;2.25;;;1.70;;
16957;SDS011;8595;52.542;11.974;2022-07-05T06:42:43;4.07;;;1.67;;
16957;SDS011;8595;52.542;11.974;2022-07-05T06:45:10;4.75;;;1.70;;
16957;SDS011;8595;52.542;11.974;2022-07-05T06:47:37;3.30;;;1.42;;
16957;SDS011;8595;52.542;11.974;2022-07-05T06:50:06;2.83;;;1.40;;
16957;SDS011;8595;52.542;11.974;2022-07-05T06:52:33;2.47;;;1.60;;
16957;SDS011;8595;52.542;11.974;2022-07-05T06:55:00;1.80;;;1.50;;
16957;SDS011;8595;52.542;11.974;2022-07-05T06:57:27;7.75;;;1.60;;
16957;SDS011;8595;52.542;11.974;2022-07-05T06:59:54;3.83;;;1.52;;
16957;SDS011;8595;52.542;11.974;2022-07-05T07:02:21;3.28;;;2.13;;
16957;SDS011;8595;52.542;11.974;2022-07-05T07:04:48;4.63;;;2.13;;
16957;SDS011;8595;52.542;11.974;2022-07-05T07:07:16;3.45;;;1.50;;
16957;SDS011;8595;52.542;11.974;2022-07-05T07:10:01;2.63;;;1.50;;
16957;SDS011;8595;52.542;11.974;2022-07-05T07:12:28;2.83;;;1.58;;
16957;SDS011;8595;52.542;11.974;2022-07-05T07:14:55;15.27;;;1.50;;
16957;SDS011;8595;52.542;11.974;2022-07-05T07:17:22;4.30;;;1.65;;
16957;SDS011;8595;52.542;11.974;2022-07-05T07:19:49;3.83;;;1.58;;
16957;SDS011;8595;52.542;11.974;2022-07-05T07:22:17;8.43;;;2.63;;
16957;SDS011;8595;52.542;11.974;2022-07-05T07:24:44;3.63;;;1.75;;
16957;SDS011;8595;52.542;11.974;2022-07-05T07:27:10;2.63;;;1.50;;
16957;SDS011;8595;52.542;11.974;2022-07-05T07:29:38;5.22;;;1.52;;
16957;SDS011;8595;52.542;11.974;2022-07-05T07:32:06;2.67;;;1.30;;
16957;SDS011;8595;52.542;11.974;2022-07-05T07:34:33;3.40;;;1.50;;
16957;SDS011;8595;52.542;11.974;2022-07-05T07:37:01;1.95;;;1.45;;
16957;SDS011;8595;52.542;11.974;2022-07-05T07:39:30;4.28;;;1.48;;
16957;SDS011;8595;52.542;11.974;2022-07-05T07:41:57;5.60;;;1.38;;
16957;SDS011;8595;52.542;11.974;2022-07-05T07:44:24;3.65;;;1.35;;
16957;SDS011;8595;52.542;11.974;2022-07-05T07:46:50;1.95;;;1.30;;
16957;SDS011;8595;52.542;11.974;2022-07-05T07:49:17;2.60;;;1.40;;
16957;SDS011;8595;52.542;11.974;2022-07-05T07:51:44;3.05;;;1.40;;
16957;SDS011;8595;52.542;11.974;2022-07-05T07:54:10;2.83;;;1.33;;
16957;SDS011;8595;52.542;11.974;2022-07-05T07:56:38;2.65;;;1.52;;
16957;SDS011;8595;52.542;11.974;2022-07-05T07:59:05;6.68;;;1.92;;
16957;SDS011;8595;52.542;11.974;2022-07-05T08:01:31;3.92;;;1.80;;
16957;SDS011;8595;52.542;11.974;2022-07-05T08:03:58;10.75;;;1.60;;
16957;SDS011;8595;52.542;11.974;2022-07-05T08:06:25;2.53;;;1.40;;
16957;SDS011;8595;52.542;11.974;2022-07-05T08:08:51;4.85;;;1.85;;
16957;SDS011;8595;52.542;11.974;2022-07-05T08:11:18;3.92;;;2.00;;
16957;SDS011;8595;52.542;11.974;2022-07-05T08:13:46;4.85;;;1.60;;
16957;SDS011;8595;52.542;11.974;2022-07-05T08:16:13;2.45;;;1.40;;
16957;SDS011;8595;52.542;11.974;2022-07-05T08:18:39;2.28;;;1.33;;
16957;SDS011;8595;52.542;11.974;2022-07-05T08:21:24;8.98;;;1.90;;
16957;SDS011;8595;52.542;11.974;2022-07-05T08:23:56;6.57;;;2.00;;
16957;SDS011;8595;52.542;11.974;2022-07-05T08:26:23;3.38;;;1.50;;
16957;SDS011;8595;52.542;11.974;2022-07-05T08:28:51;2.28;;;1.20;;
16957;SDS011;8595;52.542;11.974;2022-07-05T08:31:18;4.93;;;1.90;;
16957;SDS011;8595;52.542;11.974;2022-07-05T08:33:45;3.05;;;2.00;;
16957;SDS011;8595;52.542;11.974;2022-07-05T08:36:12;2.40;;;1.65;;
16957;SDS011;8595;52.542;11.974;2022-07-05T08:38:39;3.10;;;1.40;;
16957;SDS011;8595;52.542;11.974;2022-07-05T08:41:06;6.15;;;2.03;;
16957;SDS011;8595;52.542;11.974;2022-07-05T08:43:35;3.13;;;1.35;;
16957;SDS011;8595;52.542;11.974;2022-07-05T08:46:06;4.13;;;1.70;;
16957;SDS011;8595;52.542;11.974;2022-07-05T08:48:35;3.75;;;1.60;;
16957;SDS011;8595;52.542;11.974;2022-07-05T08:51:07;3.05;;;1.83;;
16957;SDS011;8595;52.542;11.974;2022-07-05T08:53:37;3.58;;;2.30;;
16957;SDS011;8595;52.542;11.974;2022-07-05T08:56:04;7.32;;;2.25;;
16957;SDS011;8595;52.542;11.974;2022-07-05T08:58:34;5.45;;;1.95;;
16957;SDS011;8595;52.542;11.974;2022-07-05T09:01:01;4.78;;;2.00;;
16957;SDS011;8595;52.542;11.974;2022-07-05T09:03:31;3.75;;;2.05;;
16957;SDS011;8595;52.542;11.974;2022-07-05T09:05:59;4.00;;;2.00;;
16957;SDS011;8595;52.542;11.974;2022-07-05T09:08:27;2.38;;;1.92;;
16957;SDS011;8595;52.542;11.974;2022-07-05T09:10:58;2.28;;;1.73;;
16957;SDS011;8595;52.542;11.974;2022-07-05T09:13:27;4.25;;;1.88;;
16957;SDS011;8595;52.542;11.974;2022-07-05T09:15:53;2.78;;;1.75;;
16957;SDS011;8595;52.542;11.974;2022-07-05T09:18:41;3.95;;;1.60;;
16957;SDS011;8595;52.542;11.974;2022-07-05T09:21:12;3.30;;;1.42;;
16957;SDS011;8595;52.542;11.974;2022-07-05T09:23:43;3.03;;;1.80;;
16957;SDS011;8595;52.542;11.974;2022-07-05T09:26:10;3.28;;;1.50;;
16957;SDS011;8595;52.542;11.974;2022-07-05T09:28:36;7.35;;;1.67;;
16957;SDS011;8595;52.542;11.974;2022-07-05T09:31:03;2.53;;;1.60;;
16957;SDS011;8595;52.542;11.974;2022-07-05T09:33:30;3.58;;;2.08;;
16957;SDS011;8595;52.542;11.974;2022-07-05T09:35:58;6.57;;;1.70;;
16957;SDS011;8595;52.542;11.974;2022-07-05T09:38:26;3.45;;;1.50;;
16957;SDS011;8595;52.542;11.974;2022-07-05T09:40:54;4.38;;;1.90;;
16957;SDS011;8595;52.542;11.974;2022-07-05T09:43:21;4.80;;;2.00;;
16957;SDS011;8595;52.542;11.974;2022-07-05T09:45:50;4.47;;;1.55;;
16957;SDS011;8595;52.542;11.974;2022-07-05T09:48:20;6.30;;;1.40;;
16957;SDS011;8595;52.542;11.974;2022-07-05T09:50:50;2.47;;;1.48;;
16957;SDS011;8595;52.542;11.974;2022-07-05T09:53:18;5.65;;;1.85;;
16957;SDS011;8595;52.542;11.974;2022-07-05T09:55:59;4.53;;;1.63;;
16957;SDS011;8595;52.542;11.974;2022-07-05T09:58:27;3.35;;;1.60;;
16957;SDS011;8595;52.542;11.974;2022-07-05T10:00:54;3.58;;;1.70;;
16957;SDS011;8595;52.542;11.974;2022-07-05T10:03:21;4.30;;;1.67;;
16957;SDS011;8595;52.542;11.974;2022-07-05T10:05:47;4.20;;;1.50;;
16957;SDS011;8595;52.542;11.974;2022-07-05T10:08:14;4.47;;;1.63;;
16957;SDS011;8595;52.542;11.974;2022-07-05T10:10:44;3.45;;;1.65;;
16957;SDS011;8595;52.542;11.974;2022-07-05T10:13:12;3.20;;;1.85;;
16957;SDS011;8595;52.542;11.974;2022-07-05T10:15:40;5.30;;;1.50;;
16957;SDS011;8595;52.542;11.974;2022-07-05T10:18:09;3.17;;;2.00;;
16957;SDS011;8595;52.542;11.974;2022-07-05T10:20:38;4.68;;;2.00;;
16957;SDS011;8595;52.542;11.974;2022-07-05T10:23:07;6.90;;;2.05;;
16957;SDS011;8595;52.542;11.974;2022-07-05T10:25:35;6.18;;;2.05;;
16957;SDS011;8595;52.542;11.974;2022-07-05T10:28:05;3.58;;;2.35;;
16957;SDS011;8595;52.542;11.974;2022-07-05T10:30:32;3.13;;;1.40;;
16957;SDS011;8595;52.542;11.974;2022-07-05T10:33:01;1.95;;;1.40;;
16957;SDS011;8595;52.542;11.974;2022-07-05T10:35:30;2.53;;;1.73;;
16957;SDS011;8595;52.542;11.974;2022-07-05T10:37:57;2.30;;;1.65;;
16957;SDS011;8595;52.542;11.974;2022-07-05T10:40:25;4.13;;;1.80;;
16957;SDS011;8595;52.542;11.974;2022-07-05T10:42:54;3.20;;;2.00;;
16957;SDS011;8595;52.542;11.974;2022-07-05T10:45:29;2.22;;;1.48;;
16957;SDS011;8595;52.542;11.974;2022-07-05T10:48:13;3.67;;;1.70;;
16957;SDS011;8595;52.542;11.974;2022-07-05T10:50:44;6.20;;;2.38;;
16957;SDS011;8595;52.542;11.974;2022-07-05T10:53:13;2.70;;;1.88;;
16957;SDS011;8595;52.542;11.974;2022-07-05T10:55:50;2.50;;;1.83;;
16957;SDS011;8595;52.542;11.974;2022-07-05T10:58:21;5.32;;;1.75;;
16957;SDS011;8595;52.542;11.974;2022-07-05T11:04:21;2.17;;;1.77;;
16957;SDS011;8595;52.542;11.974;2022-07-05T11:06:52;4.28;;;1.88;;
16957;SDS011;8595;52.542;11.974;2022-07-05T11:09:19;8.38;;;1.80;;
16957;SDS011;8595;52.542;11.974;2022-07-05T11:11:46;1.88;;;1.48;;
16957;SDS011;8595;52.542;11.974;2022-07-05T11:14:30;2.83;;;1.77;;
16957;SDS011;8595;52.542;11.974;2022-07-05T11:17:21;3.42;;;1.73;;
16957;SDS011;8595;52.542;11.974;2022-07-05T11:20:01;2.65;;;1.55;;
16957;SDS011;8595;52.542;11.974;2022-07-05T11:22:30;4.25;;;1.65;;
16957;SDS011;8595;52.542;11.974;2022-07-05T11:24:57;2.95;;;1.58;;
16957;SDS011;8595;52.542;11.974;2022-07-05T11:27:26;3.50;;;1.83;;
16957;SDS011;8595;52.542;11.974;2022-07-05T11:29:53;5.43;;;1.98;;
16957;SDS011;8595;52.542;11.974;2022-07-05T11:32:21;7.18;;;2.08;;
16957;SDS011;8595;52.542;11.974;2022-07-05T11:34:49;5.93;;;1.88;;
16957;SDS011;8595;52.542;11.974;2022-07-05T11:37:18;3.72;;;1.77;;
16957;SDS011;8595;52.542;11.974;2022-07-05T11:40:25;2.97;;;1.50;;
16957;SDS011;8595;52.542;11.974;2022-07-05T11:42:56;7.20;;;1.75;;
16957;SDS011;8595;52.542;11.974;2022-07-05T11:45:23;3.80;;;1.67;;
16957;SDS011;8595;52.542;11.974;2022-07-05T11:47:50;1.88;;;1.35;;
16957;SDS011;8595;52.542;11.974;2022-07-05T11:50:24;3.95;;;2.17;;
16957;SDS011;8595;52.542;11.974;2022-07-05T11:52:53;3.25;;;1.65;;
16957;SDS011;8595;52.542;11.974;2022-07-05T11:55:26;2.63;;;1.83;;
16957;SDS011;8595;52.542;11.974;2022-07-05T11:57:55;9.70;;;1.80;;
16957;SDS011;8595;52.542;11.974;2022-07-05T12:00:26;6.00;;;1.70;;
16957;SDS011;8595;52.542;11.974;2022-07-05T12:02:54;2.03;;;1.52;;
16957;SDS011;8595;52.542;11.974;2022-07-05T12:05:21;2.40;;;1.52;;
16957;SDS011;8595;52.542;11.974;2022-07-05T12:07:48;3.08;;;1.70;;
16957;SDS011;8595;52.542;11.974;2022-07-05T12:10:17;3.58;;;1.63;;
16957;SDS011;8595;52.542;11.974;2022-07-05T12:13:05;2.75;;;1.65;;
16957;SDS011;8595;52.542;11.974;2022-07-05T12:15:33;2.25;;;1.52;;
16957;SDS011;8595;52.542;11.974;2022-07-05T12:18:00;3.78;;;1.80;;
16957;SDS011;8595;52.542;11.974;2022-07-05T12:20:29;2.90;;;1.45;;
16957;SDS011;8595;52.542;11.974;2022-07-05T12:22:57;2.67;;;1.58;;
16957;SDS011;8595;52.542;11.974;2022-07-05T12:25:27;2.90;;;1.52;;
16957;SDS011;8595;52.542;11.974;2022-07-05T12:27:55;2.50;;;1.60;;
16957;SDS011;8595;52.542;11.974;2022-07-05T12:30:22;3.85;;;1.85;;
16957;SDS011;8595;52.542;11.974;2022-07-05T12:32:53;2.03;;;1.80;;
16957;SDS011;8595;52.542;11.974;2022-07-05T12:35:30;5.32;;;1.80;;
16957;SDS011;8595;52.542;11.974;2022-07-05T12:38:05;4.53;;;1.50;;
16957;SDS011;8595;52.542;11.974;2022-07-05T12:40:35;5.90;;;1.60;;
16957;SDS011;8595;52.542;11.974;2022-07-05T12:43:04;2.67;;;1.45;;
16957;SDS011;8595;52.542;11.974;2022-07-05T12:45:32;2.38;;;1.55;;
16957;SDS011;8595;52.542;11.974;2022-07-05T12:47:59;1.30;;;1.20;;
16957;SDS011;8595;52.542;11.974;2022-07-05T12:50:28;4.15;;;1.30;;
16957;SDS011;8595;52.542;11.974;2022-07-05T12:52:57;2.92;;;1.65;;
16957;SDS011;8595;52.542;11.974;2022-07-05T12:55:24;4.95;;;1.30;;
16957;SDS011;8595;52.542;11.974;2022-07-05T12:58:18;3.42;;;1.50;;
16957;SDS011;8595;52.542;11.974;2022-07-05T13:00:44;2.13;;;1.60;;
16957;SDS011;8595;52.542;11.974;2022-07-05T13:03:11;4.72;;;1.70;;
16957;SDS011;8595;52.542;11.974;2022-07-05T13:05:38;2.58;;;1.50;;
16957;SDS011;8595;52.542;11.974;2022-07-05T13:08:05;3.10;;;1.60;;
16957;SDS011;8595;52.542;11.974;2022-07-05T13:10:31;4.57;;;1.38;;
16957;SDS011;8595;52.542;11.974;2022-07-05T13:12:58;2.72;;;1.27;;
16957;SDS011;8595;52.542;11.974;2022-07-05T13:15:26;7.72;;;1.60;;
16957;SDS011;8595;52.542;11.974;2022-07-05T13:17:52;1.38;;;1.27;;
16957;SDS011;8595;52.542;11.974;2022-07-05T13:20:19;2.92;;;1.20;;
16957;SDS011;8595;52.542;11.974;2022-07-05T13:22:48;2.17;;;1.33;;
16957;SDS011;8595;52.542;11.974;2022-07-05T13:25:14;5.60;;;1.05;;
16957;SDS011;8595;52.542;11.974;2022-07-05T13:27:41;1.77;;;0.93;;
16957;SDS011;8595;52.542;11.974;2022-07-05T13:30:08;4.50;;;1.35;;
16957;SDS011;8595;52.542;11.974;2022-07-05T13:32:37;3.33;;;1.65;;
16957;SDS011;8595;52.542;11.974;2022-07-05T13:35:04;2.08;;;1.17;;
16957;SDS011;8595;52.542;11.974;2022-07-05T13:37:31;1.58;;;1.10;;
16957;SDS011;8595;52.542;11.974;2022-07-05T13:39:58;2.35;;;1.25;;
16957;SDS011;8595;52.542;11.974;2022-07-05T13:42:24;2.70;;;1.38;;
16957;SDS011;8595;52.542;11.974;2022-07-05T13:44:51;2.95;;;1.10;;
16957;SDS011;8595;52.542;11.974;2022-07-05T13:47:18;3.13;;;1.30;;
16957;SDS011;8595;52.542;11.974;2022-07-05T13:49:46;1.30;;;1.10;;
16957;SDS011;8595;52.542;11.974;2022-07-05T13:52:12;3.22;;;1.30;;
16957;SDS011;8595;52.542;11.974;2022-07-05T13:54:39;2.50;;;1.30;;
16957;SDS011;8595;52.542;11.974;2022-07-05T13:57:08;1.95;;;1.17;;
16957;SDS011;8595;52.542;11.974;2022-07-05T13:59:34;2.03;;;1.38;;
16957;SDS011;8595;52.542;11.974;2022-07-05T14:02:01;1.10;;;1.00;;
16957;SDS011;8595;52.542;11.974;2022-07-05T14:04:28;2.35;;;0.90;;
16957;SDS011;8595;52.542;11.974;2022-07-05T14:06:56;2.85;;;1.20;;
16957;SDS011;8595;52.542;11.974;2022-07-05T14:09:22;1.73;;;1.13;;
16957;SDS011;8595;52.542;11.974;2022-07-05T14:11:51;1.38;;;1.20;;
16957;SDS011;8595;52.542;11.974;2022-07-05T14:14:17;8.35;;;1.20;;
16957;SDS011;8595;52.542;11.974;2022-07-05T14:16:44;2.00;;;1.10;;
16957;SDS011;8595;52.542;11.974;2022-07-05T14:19:10;4.80;;;1.40;;
16957;SDS011;8595;52.542;11.974;2022-07-05T14:21:37;2.20;;;1.05;;
16957;SDS011;8595;52.542;11.974;2022-07-05T14:24:05;1.98;;;1.02;;
16957;SDS011;8595;52.542;11.974;2022-07-05T14:26:32;2.88;;;1.42;;
16957;SDS011;8595;52.542;11.974;2022-07-05T14:28:59;2.97;;;1.00;;
16957;SDS011;8595;52.542;11.974;2022-07-05T14:31:26;6.68;;;1.27;;
16957;SDS011;8595;52.542;11.974;2022-07-05T14:33:55;2.05;;;1.17;;
16957;SDS011;8595;52.542;11.974;2022-07-05T14:36:22;1.42;;;1.00;;
16957;SDS011;8595;52.542;11.974;2022-07-05T14:38:49;3.80;;;1.45;;
16957;SDS011;8595;52.542;11.974;2022-07-05T14:41:16;1.70;;;1.10;;
16957;SDS011;8595;52.542;11.974;2022-07-05T14:43:43;1.15;;;0.75;;
16957;SDS011;8595;52.542;11.974;2022-07-05T14:46:10;3.20;;;0.88;;
16957;SDS011;8595;52.542;11.974;2022-07-05T14:48:42;2.75;;;1.05;;
16957;SDS011;8595;52.542;11.974;2022-07-05T14:51:09;2.03;;;1.10;;
16957;SDS011;8595;52.542;11.974;2022-07-05T14:53:36;3.40;;;1.35;;
16957;SDS011;8595;52.542;11.974;2022-07-05T14:56:02;1.92;;;0.73;;
16957;SDS011;8595;52.542;11.974;2022-07-05T14:58:31;3.47;;;1.00;;